Time;durP1;ratioP1;P1;durP2;ratioP2;P2;SDS_P1;SDS_P2;PMS_P1;PMS_P2;Temp;Humidity;BMP_temperature;BMP_pressure;BME280_temperature;BME280_humidity;BME280_pressure;Samples;Min_cycle;Max_cycle;Signal;HPM_P1;HPM_P2
2022/12/24 00:01:29;;;;;;;86.30;31.67;;;7.30;99.90;;;;;;4926769;29;20066;-77
2022/12/24 00:03:54;;;;;;;65.63;29.85;;;7.30;99.90;;;;;;4904813;29;20142;-77
2022/12/24 00:06:22;;;;;;;34.65;24.70;;;7.30;99.90;;;;;;4912453;29;20042;-77
2022/12/24 00:08:49;;;;;;;43.05;26.55;;;7.30;99.90;;;;;;4903593;29;20054;-77
2022/12/24 00:11:15;;;;;;;149.82;39.03;;;7.30;99.90;;;;;;4893557;29;20054;-77
2022/12/24 00:13:41;;;;;;;35.63;24.38;;;7.30;99.90;;;;;;4907914;29;20056;-77
2022/12/24 00:16:07;;;;;;;103.43;36.45;;;7.30;99.90;;;;;;4921007;29;20066;-76
2022/12/24 00:18:33;;;;;;;46.92;26.83;;;7.30;99.90;;;;;;4888881;29;20592;-77
2022/12/24 00:21:00;;;;;;;82.13;33.90;;;7.30;99.90;;;;;;4905375;29;20051;-78
2022/12/24 00:23:26;;;;;;;103.53;35.22;;;7.40;99.90;;;;;;4897220;29;20071;-77
2022/12/24 00:25:52;;;;;;;96.18;34.95;;;7.40;99.90;;;;;;4888296;29;20146;-77
2022/12/24 00:28:17;;;;;;;71.93;32.05;;;7.40;99.90;;;;;;4891100;29;20459;-77
2022/12/24 00:30:43;;;;;;;106.78;35.47;;;7.40;99.90;;;;;;4892064;29;20048;-77
2022/12/24 00:33:09;;;;;;;39.45;27.25;;;7.40;99.90;;;;;;4906896;29;20048;-77
2022/12/24 00:35:37;;;;;;;100.78;35.13;;;7.40;99.90;;;;;;4876934;29;20525;-77
2022/12/24 00:38:03;;;;;;;54.10;29.02;;;7.40;99.90;;;;;;4915262;29;20070;-77
2022/12/24 00:40:29;;;;;;;111.22;38.25;;;7.40;99.90;;;;;;4911841;29;20041;-77
2022/12/24 00:42:55;;;;;;;74.55;31.80;;;7.40;99.90;;;;;;4905178;29;20048;-77
2022/12/24 00:45:22;;;;;;;153.95;39.75;;;7.40;99.90;;;;;;4904891;29;20444;-77
2022/12/24 00:47:48;;;;;;;152.32;38.75;;;7.40;99.90;;;;;;4891203;29;20047;-77
2022/12/24 00:50:14;;;;;;;134.52;38.15;;;7.40;99.90;;;;;;4896153;29;20410;-77
2022/12/24 00:52:40;;;;;;;117.28;37.45;;;7.40;99.90;;;;;;4898535;29;20047;-76
2022/12/24 00:55:06;;;;;;;112.85;37.78;;;7.40;99.90;;;;;;4903754;29;20055;-77
2022/12/24 00:57:32;;;;;;;91.68;36.65;;;7.40;99.90;;;;;;4927112;29;20083;-76
2022/12/24 00:59:57;;;;;;;68.88;32.95;;;7.40;99.90;;;;;;4888189;29;20052;-77
2022/12/24 01:02:23;;;;;;;89.28;34.60;;;7.40;99.90;;;;;;4900107;29;20040;-77
2022/12/24 01:07:33;;;;;;;122.38;42.88;;;7.50;99.90;;;;;;4892278;29;20051;-77
2022/12/24 01:09:59;;;;;;;131.23;42.80;;;7.50;99.90;;;;;;4893100;29;20062;-76
2022/12/24 01:12:25;;;;;;;122.05;41.60;;;7.50;99.90;;;;;;4921584;29;20044;-77
2022/12/24 01:14:51;;;;;;;101.03;39.92;;;7.50;99.90;;;;;;4907179;29;20044;-77
2022/12/24 01:17:16;;;;;;;84.38;39.45;;;7.50;99.90;;;;;;4911859;29;20039;-77
2022/12/24 01:19:42;;;;;;;79.65;38.38;;;7.50;99.90;;;;;;4893964;29;20044;-76
2022/12/24 01:22:08;;;;;;;100.82;42.53;;;7.60;99.90;;;;;;4910844;29;20043;-77
2022/12/24 01:24:33;;;;;;;107.18;44.15;;;7.60;99.90;;;;;;4893082;29;20406;-77
2022/12/24 01:26:59;;;;;;;99.18;42.15;;;7.60;99.90;;;;;;4902201;29;20122;-77
2022/12/24 01:29:25;;;;;;;113.72;44.90;;;7.60;99.90;;;;;;4888959;29;20035;-77
2022/12/24 01:31:51;;;;;;;145.07;47.05;;;7.60;99.90;;;;;;4906876;29;20110;-77
2022/12/24 01:34:17;;;;;;;112.90;45.33;;;7.60;99.90;;;;;;4899025;29;20435;-77
2022/12/24 01:36:42;;;;;;;105.70;45.50;;;7.70;99.90;;;;;;4910095;29;20052;-77
2022/12/24 01:39:08;;;;;;;88.90;40.95;;;7.70;99.90;;;;;;4897664;29;20083;-78
2022/12/24 01:44:42;;;;;;;123.90;45.65;;;7.80;99.90;;;;;;4902825;29;20044;-77
2022/12/24 01:47:21;;;;;;;72.97;40.00;;;7.90;99.90;;;;;;4904264;29;20644;-77
2022/12/24 01:49:57;;;;;;;94.38;42.10;;;7.90;99.90;;;;;;4898219;29;20126;-77
2022/12/24 01:52:32;;;;;;;79.70;38.72;;;8.00;99.90;;;;;;4897236;29;20126;-78
2022/12/24 01:55:03;;;;;;;60.13;36.53;;;8.10;99.90;;;;;;4921722;29;20047;-78
2022/12/24 01:57:33;;;;;;;61.33;35.20;;;8.10;99.90;;;;;;4898154;29;20353;-78
2022/12/24 02:00:00;;;;;;;;;;;8.20;99.90;;;;;;4893688;29;20420;-77
2022/12/24 02:02:28;;;;;;;63.22;35.65;;;8.20;99.90;;;;;;4899516;29;19930;-77
2022/12/24 02:05:15;;;;;;;52.67;33.35;;;8.20;99.90;;;;;;4902193;29;20040;-77
2022/12/24 02:07:42;;;;;;;50.65;32.13;;;8.30;99.90;;;;;;4897371;29;20074;-77
2022/12/24 02:10:10;;;;;;;43.80;30.70;;;8.30;99.90;;;;;;4905930;28;20054;-77
2022/12/24 02:12:37;;;;;;;45.72;29.48;;;8.30;99.90;;;;;;4907782;29;20744;-77
2022/12/24 02:15:05;;;;;;;39.97;27.50;;;8.30;99.90;;;;;;4884453;29;20519;-77
2022/12/24 02:17:35;;;;;;;39.70;27.08;;;8.40;99.90;;;;;;4903135;29;20058;-77
2022/12/24 02:20:39;;;;;;;32.22;24.85;;;8.40;99.90;;;;;;4913619;29;20055;-78
2022/12/24 02:23:36;;;;;;;36.03;25.00;;;8.50;99.90;;;;;;4903938;29;20047;-78
2022/12/24 02:26:10;;;;;;;29.40;21.35;;;8.50;99.90;;;;;;4907279;29;20051;-78
2022/12/24 02:28:58;;;;;;;32.97;22.92;;;8.50;99.90;;;;;;4906037;29;20074;-78
2022/12/24 02:31:51;;;;;;;36.30;22.90;;;8.60;99.90;;;;;;4912867;29;20361;-78
2022/12/24 02:34:31;;;;;;;39.65;22.83;;;8.60;99.90;;;;;;4890612;29;20407;-79
2022/12/24 02:37:04;;;;;;;;;;;8.60;99.90;;;;;;4896416;29;20108;-78
2022/12/24 02:39:40;;;;;;;30.85;19.20;;;8.60;99.90;;;;;;4899844;29;19923;-79
2022/12/24 02:42:08;;;;;;;25.13;17.05;;;8.60;99.90;;;;;;4902819;29;20054;-79
2022/12/24 02:44:45;;;;;;;23.38;16.55;;;8.60;99.90;;;;;;4901229;29;20627;-79
2022/12/24 02:47:14;;;;;;;24.88;16.48;;;8.70;99.90;;;;;;4897542;29;20044;-79
2022/12/24 02:49:44;;;;;;;31.88;17.92;;;8.70;99.90;;;;;;4897425;29;20051;-79
2022/12/24 02:52:28;;;;;;;31.50;18.38;;;8.70;99.90;;;;;;4900390;29;20499;-79
2022/12/24 02:54:54;;;;;;;30.50;16.02;;;8.70;99.90;;;;;;4899790;29;20104;-79
2022/12/24 02:58:05;;;;;;;28.30;15.50;;;8.70;99.90;;;;;;4898548;29;20040;-79
2022/12/24 03:00:54;;;;;;;;;;;8.80;99.90;;;;;;4866056;29;20116;-78
2022/12/24 03:03:35;;;;;;;33.33;12.75;;;8.70;99.90;;;;;;4879380;28;19935;-79
2022/12/24 03:06:39;;;;;;;36.95;12.82;;;8.80;99.90;;;;;;4894272;29;20088;-78
2022/12/24 03:09:19;;;;;;;33.45;10.80;;;8.80;99.90;;;;;;4897153;29;20089;-78
2022/12/24 03:11:59;;;;;;;41.42;10.65;;;8.80;99.90;;;;;;4895446;29;20523;-77
2022/12/24 03:14:26;;;;;;;32.90;8.70;;;8.80;99.90;;;;;;4896937;29;20413;-78
2022/12/24 03:16:52;;;;;;;33.58;8.77;;;8.80;99.90;;;;;;4901894;29;20512;-77
2022/12/24 03:19:19;;;;;;;33.05;7.85;;;8.80;99.90;;;;;;4895097;29;20051;-77
2022/12/24 03:21:47;;;;;;;39.20;8.32;;;8.80;99.90;;;;;;4907863;29;20452;-78
2022/12/24 03:24:12;;;;;;;32.40;7.32;;;8.80;99.90;;;;;;4895115;29;20045;-78
2022/12/24 03:26:41;;;;;;;39.85;7.68;;;8.80;99.90;;;;;;4914249;28;20058;-77
2022/12/24 03:29:07;;;;;;;36.35;7.45;;;8.70;99.90;;;;;;4878001;29;20460;-77
2022/12/24 03:31:44;;;;;;;32.95;7.30;;;8.70;99.90;;;;;;4902720;29;20487;-77
2022/12/24 03:34:12;;;;;;;30.73;7.32;;;8.70;99.90;;;;;;4896190;29;20049;-78
2022/12/24 03:36:38;;;;;;;34.38;6.88;;;8.70;99.90;;;;;;4886038;29;20493;-77
2022/12/24 03:39:05;;;;;;;33.55;6.70;;;8.80;99.90;;;;;;4869329;29;20053;-78
2022/12/24 03:41:31;;;;;;;33.78;6.53;;;8.70;99.90;;;;;;4892265;29;20056;-78
2022/12/24 03:43:57;;;;;;;35.83;7.45;;;8.70;99.90;;;;;;4871775;29;20056;-78
2022/12/24 03:46:23;;;;;;;34.40;7.72;;;8.70;99.90;;;;;;4876243;29;20055;-78
2022/12/24 03:48:49;;;;;;;30.08;7.60;;;8.70;99.90;;;;;;4874362;29;20491;-78
2022/12/24 03:51:25;;;;;;;34.30;6.57;;;8.80;99.90;;;;;;4866850;29;20047;-78
2022/12/24 03:53:52;;;;;;;40.22;6.90;;;8.80;99.90;;;;;;4891269;29;20132;-78
2022/12/24 03:56:18;;;;;;;39.22;7.35;;;8.80;99.90;;;;;;4878244;29;20055;-77
2022/12/24 03:58:44;;;;;;;34.95;6.95;;;8.80;99.90;;;;;;4871345;29;20052;-77
2022/12/24 04:01:09;;;;;;;34.72;6.53;;;8.80;99.90;;;;;;4876344;29;20123;-77
2022/12/24 04:03:35;;;;;;;31.33;7.15;;;8.90;99.90;;;;;;4860087;29;20052;-80
2022/12/24 04:06:12;;;;;;;31.83;6.65;;;8.80;99.90;;;;;;4885745;29;20622;-78
2022/12/24 04:08:39;;;;;;;29.40;7.45;;;8.80;99.90;;;;;;4905058;29;20503;-78
2022/12/24 04:11:06;;;;;;;30.88;6.97;;;8.80;99.90;;;;;;4897772;29;20084;-78
2022/12/24 04:13:32;;;;;;;32.40;6.88;;;8.70;99.90;;;;;;4870644;29;20593;-78
2022/12/24 04:16:08;;;;;;;38.53;7.55;;;8.70;99.90;;;;;;4870893;29;20142;-77
2022/12/24 04:18:35;;;;;;;35.22;7.10;;;8.70;99.90;;;;;;4892629;29;20045;-77
2022/12/24 04:21:00;;;;;;;28.38;6.95;;;8.70;99.90;;;;;;4886586;29;20045;-77
2022/12/24 04:23:30;;;;;;;30.95;6.80;;;8.70;99.90;;;;;;4868698;29;20037;-77
2022/12/24 04:25:58;;;;;;;36.20;8.07;;;8.60;99.90;;;;;;4875638;29;20041;-77
2022/12/24 04:28:28;;;;;;;34.15;7.35;;;8.60;99.90;;;;;;4880271;29;20056;-77
2022/12/24 04:31:01;;;;;;;;;;;8.60;99.90;;;;;;4886886;29;20045;-77
2022/12/24 04:33:27;;;;;;;36.45;7.72;;;8.60;99.90;;;;;;4874479;29;20351;-78
2022/12/24 04:35:53;;;;;;;39.15;7.68;;;8.60;99.90;;;;;;4878738;29;20359;-78
2022/12/24 04:38:19;;;;;;;41.08;8.55;;;8.60;99.90;;;;;;4891129;29;20052;-77
2022/12/24 04:40:45;;;;;;;39.42;8.50;;;8.60;99.90;;;;;;4894268;29;20044;-78
2022/12/24 04:43:11;;;;;;;41.72;8.70;;;8.60;99.90;;;;;;4894629;29;20044;-78
2022/12/24 04:45:36;;;;;;;35.78;8.27;;;8.60;99.90;;;;;;4898004;29;20462;-78
2022/12/24 04:48:02;;;;;;;44.58;7.60;;;8.60;99.90;;;;;;4895629;29;20080;-78
2022/12/24 04:50:28;;;;;;;47.70;8.52;;;8.60;99.90;;;;;;4897650;29;20096;-78
2022/12/24 04:52:54;;;;;;;47.33;8.85;;;8.60;99.90;;;;;;4895399;29;20048;-78
2022/12/24 04:55:19;;;;;;;43.75;9.73;;;8.60;99.90;;;;;;4884118;29;20128;-77
2022/12/24 04:57:45;;;;;;;41.65;8.48;;;8.50;99.90;;;;;;4893931;29;20411;-78
2022/12/24 05:00:12;;;;;;;41.90;7.40;;;8.50;99.90;;;;;;4894367;29;20045;-78
2022/12/24 05:02:37;;;;;;;46.75;8.77;;;8.50;99.90;;;;;;4903043;29;20517;-78
2022/12/24 05:05:03;;;;;;;46.00;8.57;;;8.40;99.90;;;;;;4900370;29;20040;-77
2022/12/24 05:07:29;;;;;;;45.35;8.40;;;8.40;99.90;;;;;;4902115;29;20464;-77
2022/12/24 05:09:55;;;;;;;51.15;9.15;;;8.40;99.90;;;;;;4903863;29;20040;-77
2022/12/24 05:12:24;;;;;;;51.08;8.95;;;8.40;99.90;;;;;;4907977;29;20406;-77
2022/12/24 05:14:49;;;;;;;48.53;8.35;;;8.30;99.90;;;;;;4890598;29;20048;-77
2022/12/24 05:17:15;;;;;;;46.95;9.07;;;8.30;99.90;;;;;;4879199;29;20107;-76
2022/12/24 05:19:41;;;;;;;47.13;10.15;;;8.30;99.90;;;;;;4907945;29;20049;-77
2022/12/24 05:27:36;;;;;;;42.47;9.07;;;8.20;99.90;;;;;;4910199;29;20059;-77
2022/12/24 05:30:02;;;;;;;53.30;9.07;;;8.20;99.90;;;;;;4921644;29;20060;-77
2022/12/24 05:32:28;;;;;;;54.65;10.10;;;8.30;99.90;;;;;;4902163;29;20039;-77
2022/12/24 05:34:54;;;;;;;42.05;8.35;;;8.30;99.90;;;;;;4896941;29;20612;-77
2022/12/24 05:37:20;;;;;;;42.90;8.75;;;8.30;99.90;;;;;;4884844;29;20052;-77
2022/12/24 05:39:46;;;;;;;44.97;8.90;;;8.30;99.90;;;;;;4916298;29;20052;-77
2022/12/24 05:42:11;;;;;;;44.00;8.70;;;8.40;99.90;;;;;;4890743;29;20048;-77
2022/12/24 05:44:38;;;;;;;53.35;9.48;;;8.40;99.90;;;;;;4885141;29;20131;-77
2022/12/24 05:47:10;;;;;;;47.50;9.15;;;8.40;99.90;;;;;;4869035;29;20064;-77
2022/12/24 05:49:35;;;;;;;45.15;9.40;;;8.40;99.90;;;;;;4874536;29;20421;-77
2022/12/24 05:52:02;;;;;;;43.95;8.20;;;8.40;99.90;;;;;;4887056;29;20124;-77
2022/12/24 05:54:28;;;;;;;47.22;8.73;;;8.40;99.90;;;;;;4862893;29;20063;-77
2022/12/24 05:56:53;;;;;;;53.35;8.82;;;8.50;99.90;;;;;;4880853;29;20156;-77
2022/12/24 05:59:19;;;;;;;46.22;9.60;;;8.40;99.90;;;;;;4886910;29;20045;-77
2022/12/24 06:01:47;;;;;;;51.55;9.57;;;8.50;99.90;;;;;;4875656;29;20105;-77
2022/12/24 06:04:13;;;;;;;55.83;10.10;;;8.50;99.90;;;;;;4904726;29;20037;-77
2022/12/24 06:06:38;;;;;;;55.38;10.48;;;8.50;99.90;;;;;;4877802;29;20049;-77
2022/12/24 06:09:04;;;;;;;49.30;9.13;;;8.50;99.90;;;;;;4883327;29;20083;-77
2022/12/24 06:11:30;;;;;;;51.13;10.75;;;8.50;99.90;;;;;;4879497;29;20049;-77
2022/12/24 06:13:56;;;;;;;62.85;11.45;;;8.60;99.90;;;;;;4889666;29;20508;-77
2022/12/24 06:16:23;;;;;;;46.85;10.27;;;8.60;99.90;;;;;;4880449;29;20575;-77
2022/12/24 06:18:49;;;;;;;50.33;10.57;;;8.70;99.90;;;;;;4881720;29;20056;-77
2022/12/24 06:21:16;;;;;;;56.45;12.18;;;8.60;99.90;;;;;;4878660;29;20468;-76
2022/12/24 06:23:43;;;;;;;49.53;11.00;;;8.60;99.90;;;;;;4898876;29;20076;-77
2022/12/24 06:26:12;;;;;;;47.90;10.05;;;8.60;99.90;;;;;;4885502;29;20052;-77
2022/12/24 06:28:38;;;;;;;53.92;11.82;;;8.70;99.90;;;;;;4884408;29;20094;-77
2022/12/24 06:31:06;;;;;;;51.42;10.23;;;8.60;99.90;;;;;;4884166;29;20115;-77
2022/12/24 06:33:32;;;;;;;53.95;11.15;;;8.70;99.90;;;;;;4886734;29;20139;-77
2022/12/24 06:35:58;;;;;;;53.97;10.98;;;8.70;99.90;;;;;;4893033;29;20067;-77
2022/12/24 06:38:24;;;;;;;54.40;11.13;;;8.70;99.90;;;;;;4899145;29;20047;-77
2022/12/24 06:40:50;;;;;;;42.83;10.57;;;8.70;99.90;;;;;;4919494;29;20070;-77
2022/12/24 06:43:16;;;;;;;55.03;11.07;;;8.70;99.90;;;;;;4912597;29;20047;-77
2022/12/24 06:45:46;;;;;;;53.47;10.00;;;8.70;99.90;;;;;;4910319;29;20052;-77
2022/12/24 06:48:12;;;;;;;58.33;11.35;;;8.70;99.90;;;;;;4911289;29;20040;-77
2022/12/24 06:50:39;;;;;;;47.13;11.45;;;8.70;99.90;;;;;;4912804;29;20815;-77
2022/12/24 06:53:05;;;;;;;41.55;10.98;;;8.80;99.90;;;;;;4895076;29;20495;-77
2022/12/24 06:55:34;;;;;;;51.00;12.38;;;8.80;99.90;;;;;;4911060;29;20082;-77
2022/12/24 06:58:00;;;;;;;53.35;12.50;;;8.80;99.90;;;;;;4920799;29;20056;-77
2022/12/24 07:00:26;;;;;;;50.47;12.27;;;8.80;99.90;;;;;;4872863;29;20032;-77
2022/12/24 07:02:51;;;;;;;55.10;11.65;;;8.80;99.90;;;;;;4894698;29;20387;-78
2022/12/24 07:05:18;;;;;;;43.60;10.75;;;8.80;99.90;;;;;;4892854;29;20044;-77
2022/12/24 07:07:44;;;;;;;45.40;10.43;;;8.80;99.90;;;;;;4881072;29;20055;-77
2022/12/24 07:10:12;;;;;;;56.47;11.73;;;8.80;99.90;;;;;;4911222;29;20048;-77
2022/12/24 07:12:38;;;;;;;46.80;9.73;;;8.70;99.90;;;;;;4915331;29;20056;-77
2022/12/24 07:15:05;;;;;;;46.72;10.38;;;8.70;99.90;;;;;;4900764;29;20852;-77
2022/12/24 07:17:31;;;;;;;49.45;9.77;;;8.70;99.90;;;;;;4896375;29;20139;-77
2022/12/24 07:19:57;;;;;;;35.63;8.32;;;8.70;99.90;;;;;;4896307;29;20556;-77
2022/12/24 07:22:23;;;;;;;44.85;9.45;;;8.70;99.90;;;;;;4901741;29;20135;-77
2022/12/24 07:24:49;;;;;;;48.00;9.85;;;8.70;99.90;;;;;;4909380;29;20048;-77
2022/12/24 07:27:15;;;;;;;50.00;9.75;;;8.70;99.90;;;;;;4893333;29;20067;-77
2022/12/24 07:29:41;;;;;;;48.20;9.38;;;8.70;99.90;;;;;;4925516;29;20043;-77
2022/12/24 07:32:07;;;;;;;53.92;10.93;;;8.70;99.90;;;;;;4929274;29;20050;-77
2022/12/24 07:34:34;;;;;;;53.38;10.20;;;8.70;99.90;;;;;;4886345;29;20598;-77
2022/12/24 07:37:00;;;;;;;45.28;10.20;;;8.80;99.90;;;;;;4890846;29;20060;-77
2022/12/24 07:39:26;;;;;;;47.80;10.38;;;8.80;99.90;;;;;;4895273;29;20047;-77
2022/12/24 07:41:52;;;;;;;47.25;10.93;;;8.80;99.90;;;;;;4897945;29;20055;-77
2022/12/24 07:44:18;;;;;;;50.58;11.07;;;8.80;99.90;;;;;;4909546;29;20035;-77
2022/12/24 07:46:44;;;;;;;44.80;9.48;;;8.90;99.90;;;;;;4919226;29;20075;-77
2022/12/24 07:49:10;;;;;;;48.17;10.15;;;8.90;99.90;;;;;;4898950;29;21056;-77
2022/12/24 07:51:36;;;;;;;50.90;9.35;;;8.90;99.90;;;;;;4897514;29;20454;-77
2022/12/24 07:54:05;;;;;;;41.42;9.18;;;8.90;99.90;;;;;;4902306;29;20546;-77
2022/12/24 07:56:31;;;;;;;43.90;9.90;;;9.00;99.90;;;;;;4898552;29;20084;-77
2022/12/24 07:58:57;;;;;;;46.38;9.02;;;8.90;99.90;;;;;;4887116;29;20091;-77
2022/12/24 08:01:23;;;;;;;45.13;10.15;;;9.00;99.90;;;;;;4911027;29;20929;-77
2022/12/24 08:03:53;;;;;;;51.53;9.38;;;9.00;99.90;;;;;;4907107;29;20043;-77
2022/12/24 08:06:22;;;;;;;36.67;7.93;;;9.00;99.90;;;;;;4908625;29;20048;-77
2022/12/24 08:08:51;;;;;;;46.35;9.70;;;9.00;99.90;;;;;;4883732;29;20044;-77
2022/12/24 08:11:16;;;;;;;45.40;8.95;;;9.00;99.90;;;;;;4893964;29;20499;-77
2022/12/24 08:13:42;;;;;;;42.78;9.05;;;9.00;99.90;;;;;;4907688;29;20126;-77
2022/12/24 08:16:08;;;;;;;43.92;9.25;;;9.00;99.90;;;;;;4896367;29;20071;-77
2022/12/24 08:18:34;;;;;;;42.80;9.00;;;9.00;99.90;;;;;;4907695;29;20044;-77
2022/12/24 08:20:59;;;;;;;46.83;9.38;;;9.00;99.90;;;;;;4907625;29;20530;-77
2022/12/24 08:23:25;;;;;;;47.85;10.13;;;9.00;99.90;;;;;;4911014;29;20043;-77
2022/12/24 08:25:51;;;;;;;51.15;9.57;;;9.00;99.90;;;;;;4891593;29;20047;-77
2022/12/24 08:28:19;;;;;;;40.92;9.80;;;9.00;99.90;;;;;;4891290;29;20043;-77
2022/12/24 08:30:47;;;;;;;49.30;10.57;;;9.00;99.90;;;;;;4898842;29;20138;-77
2022/12/24 08:33:12;;;;;;;49.28;10.25;;;9.00;99.90;;;;;;4909486;29;20051;-77
2022/12/24 08:35:38;;;;;;;44.22;10.68;;;9.10;99.90;;;;;;4895798;29;20066;-77
2022/12/24 08:38:04;;;;;;;47.95;12.30;;;9.00;99.90;;;;;;4904841;29;20567;-77
2022/12/24 08:40:30;;;;;;;47.95;11.15;;;9.10;99.90;;;;;;4897003;29;20440;-77
2022/12/24 08:42:55;;;;;;;46.80;11.93;;;9.10;99.90;;;;;;4893832;29;20043;-77
2022/12/24 08:45:24;;;;;;;54.83;10.63;;;9.10;99.90;;;;;;4918365;29;20313;-77
2022/12/24 08:47:50;;;;;;;45.38;12.35;;;9.10;99.90;;;;;;4893290;29;20160;-77
2022/12/24 08:50:16;;;;;;;46.05;10.32;;;9.10;99.90;;;;;;4891404;29;20131;-77
2022/12/24 08:52:42;;;;;;;47.03;12.70;;;9.20;99.90;;;;;;4908257;29;20054;-77
2022/12/24 08:55:08;;;;;;;49.03;11.13;;;9.10;99.90;;;;;;4885131;29;20048;-77
2022/12/24 08:57:37;;;;;;;44.33;10.98;;;9.10;99.90;;;;;;4896772;29;20083;-77
2022/12/24 09:00:04;;;;;;;53.08;11.38;;;9.20;99.90;;;;;;4911206;29;20058;-77
2022/12/24 09:02:30;;;;;;;45.17;11.80;;;9.20;99.90;;;;;;4890131;29;20040;-77
2022/12/24 09:04:56;;;;;;;53.80;11.70;;;9.20;99.90;;;;;;4899773;29;20055;-77
2022/12/24 09:07:22;;;;;;;46.10;10.98;;;9.20;99.90;;;;;;4900617;29;20050;-77
2022/12/24 09:09:48;;;;;;;53.67;11.63;;;9.20;99.90;;;;;;4899041;29;20036;-77
2022/12/24 09:12:14;;;;;;;49.80;12.00;;;9.20;99.90;;;;;;4857594;29;20521;-77
2022/12/24 09:14:39;;;;;;;52.53;10.82;;;9.20;99.90;;;;;;4905377;29;20040;-77
2022/12/24 09:17:05;;;;;;;48.20;11.82;;;9.30;99.90;;;;;;4910924;29;20044;-77
2022/12/24 09:19:31;;;;;;;47.08;11.45;;;9.30;99.90;;;;;;4910468;29;20039;-77
2022/12/24 09:21:57;;;;;;;44.80;12.13;;;9.30;99.90;;;;;;4904984;29;20423;-77
2022/12/24 09:24:23;;;;;;;43.20;11.00;;;9.30;99.90;;;;;;4897259;29;20051;-77
2022/12/24 09:26:49;;;;;;;48.53;11.38;;;9.30;99.90;;;;;;4905269;29;20059;-77
2022/12/24 09:29:15;;;;;;;42.05;11.15;;;9.30;99.90;;;;;;4887788;29;20047;-77
2022/12/24 09:31:42;;;;;;;48.80;11.63;;;9.40;99.90;;;;;;4895006;29;20052;-78
2022/12/24 09:34:07;;;;;;;47.30;11.40;;;9.40;99.90;;;;;;4883218;29;20048;-78
2022/12/24 09:36:34;;;;;;;49.47;12.85;;;9.50;99.90;;;;;;4886253;29;20048;-77
2022/12/24 09:39:00;;;;;;;40.38;10.93;;;9.50;99.90;;;;;;4856921;29;20062;-78
2022/12/24 09:41:59;;;;;;;52.00;12.70;;;9.50;99.90;;;;;;4878630;29;20033;-78
2022/12/24 09:45:07;;;;;;;50.75;11.48;;;9.50;99.90;;;;;;4881233;29;20546;-77
2022/12/24 09:47:40;;;;;;;47.55;11.25;;;9.50;99.90;;;;;;4873799;29;20547;-78
2022/12/24 09:50:29;;;;;;;53.92;12.25;;;9.50;99.90;;;;;;4867915;29;20088;-77
2022/12/24 09:52:57;;;;;;;46.20;11.23;;;9.50;99.90;;;;;;4876643;29;20057;-77
2022/12/24 09:55:32;;;;;;;40.47;9.60;;;9.50;99.90;;;;;;4876061;29;20734;-78
2022/12/24 09:58:04;;;;;;;38.03;9.70;;;9.40;99.90;;;;;;4865614;29;20048;-78
2022/12/24 10:00:35;;;;;;;40.97;9.13;;;9.40;99.90;;;;;;4865459;29;20047;-78
2022/12/24 10:03:04;;;;;;;44.92;11.20;;;9.40;99.90;;;;;;4870620;29;20053;-77
2022/12/24 10:05:49;;;;;;;47.78;10.63;;;9.40;99.90;;;;;;4874196;29;20315;-77
2022/12/24 10:08:35;;;;;;;33.95;7.80;;;9.40;99.90;;;;;;4877767;29;20040;-78
2022/12/24 10:11:17;;;;;;;41.20;8.35;;;9.50;99.90;;;;;;4885072;29;20092;-77
2022/12/24 10:14:10;;;;;;;35.78;8.07;;;9.50;99.90;;;;;;4887762;29;20116;-77
2022/12/24 10:16:46;;;;;;;39.85;8.52;;;9.50;99.90;;;;;;4896754;29;20068;-77
2022/12/24 10:19:18;;;;;;;36.28;7.85;;;9.50;99.90;;;;;;4876861;29;20096;-75
2022/12/24 10:22:12;;;;;;;31.65;7.03;;;9.50;99.90;;;;;;4876711;29;20056;-75
2022/12/24 10:25:26;;;;;;;30.70;6.88;;;9.50;99.90;;;;;;4897824;29;20139;-75
2022/12/24 10:27:54;;;;;;;38.80;8.48;;;9.50;99.90;;;;;;4846481;29;20061;-77
2022/12/24 10:30:22;;;;;;;43.58;9.15;;;9.50;99.90;;;;;;4859696;29;20057;-78
2022/12/24 10:32:50;;;;;;;39.55;9.48;;;9.50;99.90;;;;;;4882376;29;20191;-77
2022/12/24 10:35:19;;;;;;;36.42;8.32;;;9.60;99.90;;;;;;4862517;29;20056;-78
2022/12/24 10:37:46;;;;;;;35.40;9.02;;;9.60;99.90;;;;;;4894113;29;20052;-78
2022/12/24 10:40:36;;;;;;;43.00;9.48;;;9.60;99.90;;;;;;4907500;29;20503;-78
2022/12/24 10:43:11;;;;;;;40.85;9.30;;;9.70;99.90;;;;;;4897082;29;20044;-78
2022/12/24 10:45:42;;;;;;;51.60;10.13;;;9.70;99.90;;;;;;4878660;29;20049;-78
2022/12/24 10:48:15;;;;;;;42.67;8.88;;;9.70;99.90;;;;;;4871019;29;20057;-79
2022/12/24 10:50:55;;;;;;;35.17;7.95;;;9.70;99.90;;;;;;4889689;29;20127;-78
2022/12/24 10:53:40;;;;;;;35.22;6.88;;;9.70;99.90;;;;;;4886566;29;20187;-78
2022/12/24 10:56:10;;;;;;;39.20;7.97;;;9.70;99.90;;;;;;4888840;29;20036;-79
2022/12/24 10:58:36;;;;;;;37.85;7.57;;;9.60;99.90;;;;;;4887768;29;20318;-78
2022/12/24 11:01:02;;;;;;;41.22;7.78;;;9.70;99.90;;;;;;4876405;29;20045;-78
2022/12/24 11:03:33;;;;;;;36.75;6.90;;;9.60;99.90;;;;;;4876853;29;20103;-78
2022/12/24 11:06:22;;;;;;;39.17;7.60;;;9.70;99.90;;;;;;4886575;29;20092;-78
2022/12/24 11:08:47;;;;;;;39.38;7.80;;;9.60;99.90;;;;;;4882463;29;20457;-78
2022/12/24 11:11:20;;;;;;;41.50;8.35;;;9.60;99.90;;;;;;4882219;29;20072;-78
2022/12/24 11:13:49;;;;;;;40.80;7.35;;;9.70;99.90;;;;;;4876833;29;20053;-78
2022/12/24 11:16:30;;;;;;;49.47;9.13;;;9.70;99.90;;;;;;4889862;29;20092;-78
2022/12/24 11:18:59;;;;;;;47.90;9.15;;;9.70;99.90;;;;;;4884737;29;20063;-78
2022/12/24 11:21:31;;;;;;;43.63;8.60;;;9.70;99.90;;;;;;4885710;29;20043;-78
2022/12/24 11:24:02;;;;;;;42.20;10.25;;;9.70;99.90;;;;;;4883613;29;20064;-78
2022/12/24 11:26:29;;;;;;;43.25;9.20;;;9.70;99.90;;;;;;4871535;29;20065;-78
2022/12/24 11:29:07;;;;;;;43.30;8.93;;;9.70;99.90;;;;;;4867003;29;20108;-78
2022/12/24 11:31:36;;;;;;;31.95;6.85;;;9.80;99.90;;;;;;4880447;29;20512;-78
2022/12/24 11:34:16;;;;;;;45.97;9.52;;;9.80;99.90;;;;;;4886927;29;20049;-78
2022/12/24 11:36:42;;;;;;;37.70;8.18;;;9.80;99.90;;;;;;4877951;29;20468;-78
2022/12/24 11:39:21;;;;;;;47.35;9.38;;;9.80;99.90;;;;;;4883510;29;20060;-78
2022/12/24 11:41:49;;;;;;;46.85;8.50;;;9.80;99.90;;;;;;4887256;29;20175;-78
2022/12/24 11:44:24;;;;;;;41.75;8.57;;;9.80;99.90;;;;;;4880209;29;20068;-78
2022/12/24 11:46:55;;;;;;;39.22;7.82;;;9.80;99.90;;;;;;4875607;29;20056;-78
2022/12/24 11:49:23;;;;;;;42.33;9.20;;;9.90;99.90;;;;;;4874591;29;20057;-78
2022/12/24 11:52:10;;;;;;;45.65;9.25;;;9.90;99.90;;;;;;4887671;29;20052;-78
2022/12/24 11:54:59;;;;;;;39.67;7.72;;;9.90;99.90;;;;;;4881616;29;20079;-78
2022/12/24 11:57:34;;;;;;;37.65;7.13;;;9.90;99.90;;;;;;4883804;29;20147;-78
2022/12/24 12:00:00;;;;;;;40.15;7.53;;;9.90;99.90;;;;;;4882325;29;20057;-78
2022/12/24 12:02:37;;;;;;;34.42;6.93;;;9.90;99.90;;;;;;4878931;29;20109;-78
2022/12/24 12:05:10;;;;;;;34.60;8.35;;;9.80;99.90;;;;;;4879479;29;20052;-78
2022/12/24 12:07:37;;;;;;;31.15;7.00;;;9.90;99.90;;;;;;4883067;29;20681;-78
2022/12/24 12:10:17;;;;;;;34.58;7.18;;;9.90;99.90;;;;;;4878052;29;20063;-79
2022/12/24 12:13:10;;;;;;;33.95;6.90;;;9.90;99.90;;;;;;4881300;29;20060;-78
2022/12/24 12:15:47;;;;;;;30.90;6.80;;;9.90;99.90;;;;;;4886669;29;20074;-78
2022/12/24 12:18:18;;;;;;;33.35;6.43;;;9.80;99.90;;;;;;4880883;29;20136;-79
2022/12/24 12:20:53;;;;;;;36.58;7.60;;;9.80;99.90;;;;;;4873662;29;20288;-78
2022/12/24 12:23:29;;;;;;;27.85;6.00;;;9.80;99.90;;;;;;4886912;29;20523;-78
2022/12/24 12:26:17;;;;;;;32.60;7.63;;;9.80;99.90;;;;;;4867490;29;20120;-78
2022/12/24 12:28:52;;;;;;;30.25;5.50;;;9.80;99.90;;;;;;4899735;29;20045;-78
2022/12/24 12:31:32;;;;;;;37.50;7.78;;;9.80;99.90;;;;;;4877256;29;20514;-78
2022/12/24 13:15:48;;;;;;;24.20;5.65;;;9.80;99.90;;;;;;5258331;23;20063;-79
2022/12/24 13:18:36;;;;;;;29.85;5.38;;;9.80;99.90;;;;;;4917930;28;20074;-79
2022/12/24 13:21:14;;;;;;;27.52;5.70;;;9.80;99.90;;;;;;4915939;28;20101;-79
2022/12/24 13:23:40;;;;;;;26.67;5.82;;;9.90;99.90;;;;;;4916044;28;20191;-79
2022/12/24 13:26:11;;;;;;;27.58;5.93;;;9.90;99.90;;;;;;4897299;28;20070;-79
2022/12/24 13:28:37;;;;;;;26.95;7.35;;;9.80;99.90;;;;;;4900922;28;20481;-77
2022/12/24 13:31:18;;;;;;;27.02;6.22;;;9.80;99.90;;;;;;4901311;28;20044;-78
2022/12/24 13:33:46;;;;;;;28.55;6.30;;;9.80;99.90;;;;;;4918760;28;20044;-79
2022/12/24 13:36:17;;;;;;;31.30;6.40;;;9.80;99.90;;;;;;4898132;28;20260;-78
2022/12/24 13:38:45;;;;;;;34.70;6.45;;;9.80;99.90;;;;;;4905271;28;20050;-79
2022/12/24 13:41:39;;;;;;;24.23;5.35;;;9.80;99.90;;;;;;4917597;28;20553;-78
2022/12/24 13:44:15;;;;;;;26.63;5.32;;;9.80;99.90;;;;;;4918944;28;20787;-78
2022/12/24 13:46:50;;;;;;;24.98;6.30;;;9.80;99.90;;;;;;4924594;28;20046;-78
2022/12/24 13:49:29;;;;;;;21.23;4.32;;;9.80;99.90;;;;;;4921764;28;20179;-77
2022/12/24 13:52:10;;;;;;;24.27;5.47;;;9.80;99.90;;;;;;4934330;28;20485;-77